Time;durP1;ratioP1;P1;durP2;ratioP2;P2;SDS_P1;SDS_P2;PMS_P1;PMS_P2;Temp;Humidity;BMP_temperature;BMP_pressure;BME280_temperature;BME280_humidity;BME280_pressure;Samples;Min_cycle;Max_cycle;Signal;HPM_P1;HPM_P2
2023/10/22 00:01:57;;;;;;;;;;;;;;;;;;5026073;28;4585;-59
2023/10/22 00:04:22;;;;;;;;;;;;;;;;;;5033715;28;4520;-59
2023/10/22 00:06:47;;;;;;;;;;;;;;;;;;5034572;28;5597;-59
2023/10/22 00:15:18;;;;;;;;;;;;;;;;;;5014714;28;4642;-59
2023/10/22 00:17:44;;;;;;;;;;;;;;;;;;4996906;28;1467;-59
2023/10/22 00:20:09;;;;;;;;;;;;;;;;;;5011372;28;4587;-59
2023/10/22 00:22:34;;;;;;;;;;;;;;;;;;5013022;28;4884;-59
2023/10/22 00:28:03;;;;;;;;;;;;;;;;;;5012638;28;4853;-59
2023/10/22 00:30:30;;;;;;;;;;;;;;;;;;5013790;28;5009;-59
2023/10/22 00:32:55;;;;;;;;;;;;;;;;;;5012800;28;4718;-59
2023/10/22 00:35:20;;;;;;;;;;;;;;;;;;5029639;28;1981;-59
2023/10/22 00:40:49;;;;;;;;;;;;;;;;;;5014571;28;5027;-60
2023/10/22 00:43:14;;;;;;;;;;;;;;;;;;5014117;28;5022;-59
2023/10/22 00:45:39;;;;;;;;;;;;;;;;;;5014025;28;4976;-59
2023/10/22 00:48:05;;;;;;;;;;;;;;;;;;5014480;28;4442;-60
2023/10/22 00:50:30;;;;;;;;;;;;;;;;;;5022782;28;1138;-59
2023/10/22 00:52:55;;;;;;;;;;;;;;;;;;5029047;28;4427;-60
2023/10/22 00:55:21;;;;;;;;;;;;;;;;;;5013086;28;5073;-60
2023/10/22 00:57:47;;;;;;;;;;;;;;;;;;5012171;28;4591;-59
2023/10/22 01:00:13;;;;;;;;;;;;;;;;;;5029101;28;5234;-59
2023/10/22 01:02:38;;;;;;;;;;;;;;;;;;5013253;28;2078;-59
2023/10/22 01:05:05;;;;;;;;;;;;;;;;;;5014035;28;5060;-60
2023/10/22 01:07:31;;;;;;;;;;;;;;;;;;5020040;28;4900;-59
2023/10/22 01:12:59;;;;;;;;;;;;;;;;;;5033670;28;4636;-60
2023/10/22 01:15:27;;;;;;;;;;;;;;;;;;5022836;28;5062;-59
2023/10/22 01:21:14;;;;;;;;;;;;;;;;;;5015307;28;5009;-59
2023/10/22 01:23:39;;;;;;;;;;;;;;;;;;5018849;28;2106;-59
2023/10/22 01:26:06;;;;;;;;;;;;;;;;;;5037293;28;4892;-59
2023/10/22 01:28:32;;;;;;;;;;;;;;;;;;5037191;28;4935;-59
2023/10/22 01:40:05;;;;;;;;;;;;;;;;;;5017060;28;4616;-59
2023/10/22 01:45:33;;;;;;;;;;;;;;;;;;5015493;28;4679;-58
2023/10/22 01:47:58;;;;;;;;;;;;;;;;;;5015405;28;5034;-57
2023/10/22 01:50:24;;;;;;;;;;;;;;;;;;5017096;28;1205;-60
2023/10/22 01:52:50;;;;;;;;;;;;;;;;;;5017248;28;5045;-59
2023/10/22 01:58:07;;;;;;;;;;;;;;;;;;5015020;28;5085;-60
2023/10/22 02:03:35;;;;;;;;;;;;;;;;;;5016796;28;4421;-60
2023/10/22 02:06:01;;;;;;;;;;;;;;;;;;5014936;28;5069;-59
2023/10/22 02:08:26;;;;;;;;;;;;;;;;;;5017319;28;1199;-60
2023/10/22 02:10:51;;;;;;;;;;;;;;;;;;5016251;28;4848;-60
2023/10/22 02:16:20;;;;;;;;;;;;;;;;;;5016503;28;5174;-60
2023/10/22 02:18:45;;;;;;;;;;;;;;;;;;5016467;28;5065;-59
2023/10/22 02:21:10;;;;;;;;;;;;;;;;;;5016824;28;5033;-59
2023/10/22 02:23:36;;;;;;;;;;;;;;;;;;5032209;28;1063;-59
2023/10/22 02:26:01;;;;;;;;;;;;;;;;;;5016108;28;5041;-59
2023/10/22 02:28:26;;;;;;;;;;;;;;;;;;5015300;28;5257;-59
2023/10/22 02:30:51;;;;;;;;;;;;;;;;;;5016619;28;4783;-59
2023/10/22 02:33:17;;;;;;;;;;;;;;;;;;4997072;28;4524;-59
2023/10/22 02:35:43;;;;;;;;;;;;;;;;;;5016061;28;1977;-59
2023/10/22 02:38:13;;;;;;;;;;;;;;;;;;5018092;28;5232;-59
2023/10/22 02:40:38;;;;;;;;;;;;;;;;;;5035581;28;4605;-59
2023/10/22 02:43:03;;;;;;;;;;;;;;;;;;5035791;28;4596;-60
2023/10/22 02:45:29;;;;;;;;;;;;;;;;;;5035811;28;5067;-60
2023/10/22 02:47:55;;;;;;;;;;;;;;;;;;5019027;28;4481;-59
2023/10/22 02:50:21;;;;;;;;;;;;;;;;;;5051331;28;2032;-60
2023/10/22 02:52:46;;;;;;;;;;;;;;;;;;5035012;28;5050;-60
2023/10/22 02:55:11;;;;;;;;;;;;;;;;;;5035570;28;5192;-59
2023/10/22 02:57:36;;;;;;;;;;;;;;;;;;5034887;28;5054;-60
2023/10/22 03:03:11;;;;;;;;;;;;;;;;;;5035328;28;4401;-59
2023/10/22 03:05:36;;;;;;;;;;;;;;;;;;5035898;28;1177;-58
2023/10/22 03:08:03;;;;;;;;;;;;;;;;;;5032479;28;4764;-59
2023/10/22 03:13:31;;;;;;;;;;;;;;;;;;5016212;28;4722;-59
2023/10/22 03:16:11;;;;;;;;;;;;;;;;;;5020857;28;4993;-59
2023/10/22 03:24:41;;;;;;;;;;;;;;;;;;5025907;28;5205;-59
2023/10/22 03:27:06;;;;;;;;;;;;;;;;;;5013659;28;4835;-59
2023/10/22 03:29:32;;;;;;;;;;;;;;;;;;5015659;28;1173;-59
2023/10/22 03:31:57;;;;;;;;;;;;;;;;;;5013522;28;4643;-59
2023/10/22 03:34:23;;;;;;;;;;;;;;;;;;5014800;28;4958;-59
2023/10/22 03:39:51;;;;;;;;;;;;;;;;;;5014937;28;5029;-59
2023/10/22 03:42:16;;;;;;;;;;;;;;;;;;5011607;28;4492;-59
2023/10/22 03:44:41;;;;;;;;;;;;;;;;;;5015191;28;1051;-59
2023/10/22 03:47:07;;;;;;;;;;;;;;;;;;5014943;28;4590;-59
2023/10/22 03:53:05;;;;;;;;;;;;;;;;;;5014902;28;5149;-58
2023/10/22 03:55:31;;;;;;;;;;;;;;;;;;5012717;28;5178;-59
2023/10/22 03:57:56;;;;;;;;;;;;;;;;;;5014036;28;5098;-58
2023/10/22 04:00:21;;;;;;;;;;;;;;;;;;5014647;28;4642;-58
2023/10/22 04:09:13;;;;;;;;;;;;;;;;;;5014457;28;5179;-59
2023/10/22 04:11:54;;;;;;;;;;;;;;;;;;5014772;28;1255;-59
2023/10/22 04:14:19;;;;;;;;;;;;;;;;;;5012671;28;5220;-59
2023/10/22 04:16:45;;;;;;;;;;;;;;;;;;5014202;28;5021;-59
2023/10/22 04:19:11;;;;;;;;;;;;;;;;;;4995280;28;5092;-59
2023/10/22 04:27:41;;;;;;;;;;;;;;;;;;5014774;28;4883;-59
2023/10/22 04:33:12;;;;;;;;;;;;;;;;;;5014176;28;5013;-59
2023/10/22 04:35:37;;;;;;;;;;;;;;;;;;5019137;28;1988;-58
2023/10/22 04:38:02;;;;;;;;;;;;;;;;;;5014234;28;4543;-58
2023/10/22 04:40:31;;;;;;;;;;;;;;;;;;5014186;28;4437;-59
2023/10/22 04:46:00;;;;;;;;;;;;;;;;;;5014493;28;5173;-59
2023/10/22 04:48:26;;;;;;;;;;;;;;;;;;5021383;28;5114;-59
2023/10/22 04:50:52;;;;;;;;;;;;;;;;;;5035754;28;5281;-59
2023/10/22 04:53:17;;;;;;;;;;;;;;;;;;5038105;28;1125;-59
2023/10/22 04:58:52;;;;;;;;;;;;;;;;;;5015960;28;5099;-59
2023/10/22 05:04:20;;;;;;;;;;;;;;;;;;5038070;28;4435;-59
2023/10/22 05:06:45;;;;;;;;;;;;;;;;;;5025427;28;4810;-59
2023/10/22 05:09:11;;;;;;;;;;;;;;;;;;5017326;28;4945;-59
2023/10/22 05:11:37;;;;;;;;;;;;;;;;;;5028163;28;1105;-59
2023/10/22 05:17:05;;;;;;;;;;;;;;;;;;5017538;28;5250;-59
2023/10/22 05:19:31;;;;;;;;;;;;;;;;;;5015753;28;5091;-59
2023/10/22 05:21:56;;;;;;;;;;;;;;;;;;5016069;28;5597;-59
2023/10/22 05:24:22;;;;;;;;;;;;;;;;;;5030345;28;4489;-59
2023/10/22 05:29:50;;;;;;;;;;;;;;;;;;5017385;28;4591;-59
2023/10/22 05:35:18;;;;;;;;;;;;;;;;;;5018024;28;4752;-59
2023/10/22 05:37:43;;;;;;;;;;;;;;;;;;5015367;28;5808;-59
2023/10/22 05:40:11;;;;;;;;;;;;;;;;;;5017163;28;4701;-59
2023/10/22 05:42:37;;;;;;;;;;;;;;;;;;5017110;28;5064;-58
2023/10/22 05:48:05;;;;;;;;;;;;;;;;;;5014744;28;5087;-58
2023/10/22 05:50:30;;;;;;;;;;;;;;;;;;5015837;28;1031;-59
2023/10/22 05:52:56;;;;;;;;;;;;;;;;;;5013682;28;4952;-58
2023/10/22 05:55:21;;;;;;;;;;;;;;;;;;5014987;28;4969;-59
2023/10/22 06:00:49;;;;;;;;;;;;;;;;;;5015065;28;5034;-59
2023/10/22 06:03:14;;;;;;;;;;;;;;;;;;5015486;28;4983;-58
2023/10/22 06:05:40;;;;;;;;;;;;;;;;;;5017638;28;1342;-59
2023/10/22 06:08:05;;;;;;;;;;;;;;;;;;5018217;28;4803;-59
2023/10/22 06:10:30;;;;;;;;;;;;;;;;;;5016257;28;5127;-58
2023/10/22 06:12:55;;;;;;;;;;;;;;;;;;5016578;28;5092;-59
2023/10/22 06:15:21;;;;;;;;;;;;;;;;;;5016752;28;4985;-59
2023/10/22 06:20:48;;;;;;;;;;;;;;;;;;5016624;28;4536;-59
2023/10/22 06:23:40;;;;;;;;;;;;;;;;;;5017090;28;1163;-59
2023/10/22 06:29:08;;;;;;;;;;;;;;;;;;5016493;28;4461;-59
2023/10/22 06:34:36;;;;;;;;;;;;;;;;;;5016577;28;5077;-59
2023/10/22 06:40:05;;;;;;;;;;;;;;;;;;5014743;28;4629;-59
2023/10/22 07:00:54;;;;;;;;;;;;;;;;;;5014379;28;5084;-60
2023/10/22 07:06:21;;;;;;;;;;;;;;;;;;5035674;28;5597;-60
2023/10/22 07:08:47;;;;;;;;;;;;;;;;;;5034879;28;5291;-59
2023/10/22 07:11:12;;;;;;;;;;;;;;;;;;5026098;28;1344;-59
2023/10/22 07:13:38;;;;;;;;;;;;;;;;;;5013836;28;5077;-59
2023/10/22 07:16:03;;;;;;;;;;;;;;;;;;5015005;28;4928;-59
2023/10/22 07:18:29;;;;;;;;;;;;;;;;;;5014954;28;4988;-59
2023/10/22 07:20:54;;;;;;;;;;;;;;;;;;5015088;28;4734;-59
2023/10/22 07:26:22;;;;;;;;;;;;;;;;;;5015949;28;4592;-59
2023/10/22 07:28:49;;;;;;;;;;;;;;;;;;4996167;28;5117;-60
2023/10/22 07:31:17;;;;;;;;;;;;;;;;;;5015049;28;5030;-59
2023/10/22 07:33:49;;;;;;;;;;;;;;;;;;5013585;28;5173;-59
2023/10/22 07:39:48;;;;;;;;;;;;;;;;;;5015079;28;5181;-59
2023/10/22 07:45:16;;;;;;;;;;;;;;;;;;5034422;28;5198;-59
2023/10/22 07:47:42;;;;;;;;;;;;;;;;;;5035157;28;1191;-58
2023/10/22 07:50:07;;;;;;;;;;;;;;;;;;5034322;28;4504;-60
2023/10/22 07:52:32;;;;;;;;;;;;;;;;;;5032595;28;4935;-60
2023/10/22 07:55:08;;;;;;;;;;;;;;;;;;5012948;28;5177;-60
2023/10/22 07:57:34;;;;;;;;;;;;;;;;;;5014391;28;4975;-59
2023/10/22 07:59:59;;;;;;;;;;;;;;;;;;5011660;28;5008;-59
2023/10/22 08:05:29;;;;;;;;;;;;;;;;;;5028465;28;4634;-59
2023/10/22 08:07:54;;;;;;;;;;;;;;;;;;5049274;28;4655;-59
2023/10/22 08:10:19;;;;;;;;;;;;;;;;;;5033879;28;5223;-59
2023/10/22 08:12:44;;;;;;;;;;;;;;;;;;5034229;28;5101;-59
2023/10/22 08:15:10;;;;;;;;;;;;;;;;;;5033832;28;4473;-59
2023/10/22 08:20:38;;;;;;;;;;;;;;;;;;5029729;28;4536;-59
2023/10/22 08:26:29;;;;;;;;;;;;;;;;;;5013742;28;4610;-59
2023/10/22 08:34:59;;;;;;;;;;;;;;;;;;5028515;28;5051;-63
2023/10/22 08:37:25;;;;;;;;;;;;;;;;;;5013649;28;4520;-59
2023/10/22 08:39:50;;;;;;;;;;;;;;;;;;5014208;28;5160;-59
2023/10/22 08:42:34;;;;;;;;;;;;;;;;;;5010748;28;5052;-59
2023/10/22 08:44:59;;;;;;;;;;;;;;;;;;5012529;28;4975;-59
2023/10/22 08:47:25;;;;;;;;;;;;;;;;;;4996710;28;1084;-59
2023/10/22 08:49:51;;;;;;;;;;;;;;;;;;5013755;28;4770;-59
2023/10/22 08:52:16;;;;;;;;;;;;;;;;;;5014094;28;4808;-60
2023/10/22 08:54:43;;;;;;;;;;;;;;;;;;5028989;28;4949;-58
2023/10/22 08:57:09;;;;;;;;;;;;;;;;;;5012658;28;5000;-59
2023/10/22 09:03:17;;;;;;;;;;;;;;;;;;5010310;28;4488;-59
2023/10/22 09:05:42;;;;;;;;;;;;;;;;;;5012642;28;1200;-59
2023/10/22 09:08:08;;;;;;;;;;;;;;;;;;5012575;28;4528;-59
2023/10/22 09:10:34;;;;;;;;;;;;;;;;;;5012095;28;4845;-59
2023/10/22 09:13:21;;;;;;;;;;;;;;;;;;5012443;28;5078;-59
2023/10/22 09:21:52;;;;;;;;;;;;;;;;;;5013798;28;5838;-59
2023/10/22 09:24:17;;;;;;;;;;;;;;;;;;5016052;28;5072;-59
2023/10/22 09:26:49;;;;;;;;;;;;;;;;;;5025932;28;1003;-59
2023/10/22 09:29:14;;;;;;;;;;;;;;;;;;5006331;28;5009;-59
2023/10/22 09:32:12;;;;;;;;;;;;;;;;;;5012375;28;5042;-59
2023/10/22 09:35:06;;;;;;;;;;;;;;;;;;5010695;28;4491;-59
2023/10/22 09:40:34;;;;;;;;;;;;;;;;;;5032506;28;5132;-59
2023/10/22 09:46:03;;;;;;;;;;;;;;;;;;5016859;28;4447;-59
2023/10/22 09:51:36;;;;;;;;;;;;;;;;;;5016734;28;5311;-59
2023/10/22 09:57:08;;;;;;;;;;;;;;;;;;5014524;28;5021;-58
2023/10/22 09:59:34;;;;;;;;;;;;;;;;;;5017076;28;965;-60
2023/10/22 10:01:59;;;;;;;;;;;;;;;;;;5011986;28;4457;-57
2023/10/22 10:04:25;;;;;;;;;;;;;;;;;;4997018;28;5237;-57
2023/10/22 10:06:50;;;;;;;;;;;;;;;;;;4998691;28;4420;-60
2023/10/22 10:09:16;;;;;;;;;;;;;;;;;;4998958;28;4797;-60
2023/10/22 10:11:41;;;;;;;;;;;;;;;;;;5016130;28;1169;-60
2023/10/22 10:20:30;;;;;;;;;;;;;;;;;;5037066;28;4737;-59
2023/10/22 10:25:58;;;;;;;;;;;;;;;;;;5016842;28;4365;-59
2023/10/22 10:34:35;;;;;;;;;;;;;;;;;;5035800;28;5085;-59
2023/10/22 10:40:05;;;;;;;;;;;;;;;;;;5035773;28;5014;-59
2023/10/22 10:42:46;;;;;;;;;;;;;;;;;;5035373;28;5280;-59
2023/10/22 10:45:12;;;;;;;;;;;;;;;;;;5035485;28;5007;-59
2023/10/22 10:50:41;;;;;;;;;;;;;;;;;;5030118;28;4543;-59
2023/10/22 10:53:06;;;;;;;;;;;;;;;;;;4998860;28;4838;-59
2023/10/22 10:55:34;;;;;;;;;;;;;;;;;;5014116;28;5093;-59
2023/10/22 10:58:00;;;;;;;;;;;;;;;;;;5013730;28;5086;-60
2023/10/22 11:03:35;;;;;;;;;;;;;;;;;;5012794;28;5083;-59
2023/10/22 11:09:03;;;;;;;;;;;;;;;;;;5015490;28;4696;-59
2023/10/22 11:14:34;;;;;;;;;;;;;;;;;;5014670;28;4587;-59
2023/10/22 11:16:59;;;;;;;;;;;;;;;;;;5013840;28;4466;-59
2023/10/22 11:19:25;;;;;;;;;;;;;;;;;;5015267;28;5126;-59
2023/10/22 11:24:55;;;;;;;;;;;;;;;;;;5032075;28;5179;-59
2023/10/22 11:30:32;;;;;;;;;;;;;;;;;;5034869;28;4373;-59
2023/10/22 11:32:58;;;;;;;;;;;;;;;;;;5034470;28;4627;-59
2023/10/22 11:35:32;;;;;;;;;;;;;;;;;;5035183;28;1979;-59
2023/10/22 11:41:03;;;;;;;;;;;;;;;;;;5035094;28;5101;-59
2023/10/22 11:43:28;;;;;;;;;;;;;;;;;;5049796;28;4468;-59
2023/10/22 11:45:56;;;;;;;;;;;;;;;;;;5023495;28;5022;-59
2023/10/22 11:51:25;;;;;;;;;;;;;;;;;;5015113;28;5471;-59
2023/10/22 12:00:28;;;;;;;;;;;;;;;;;;5013536;28;4984;-59
2023/10/22 12:02:59;;;;;;;;;;;;;;;;;;5014601;28;4995;-59
2023/10/22 12:05:25;;;;;;;;;;;;;;;;;;5013685;28;1085;-59
2023/10/22 12:07:50;;;;;;;;;;;;;;;;;;5031054;28;4985;-59
2023/10/22 12:10:17;;;;;;;;;;;;;;;;;;5029820;28;5157;-60
2023/10/22 12:12:43;;;;;;;;;;;;;;;;;;5025776;28;4688;-59
2023/10/22 12:15:08;;;;;;;;;;;;;;;;;;5033915;28;5125;-59
2023/10/22 12:17:33;;;;;;;;;;;;;;;;;;5034541;28;945;-59
2023/10/22 12:23:02;;;;;;;;;;;;;;;;;;5034369;28;5777;-59
2023/10/22 12:28:30;;;;;;;;;;;;;;;;;;5023995;28;5037;-59
2023/10/22 12:30:56;;;;;;;;;;;;;;;;;;5011394;28;4677;-59
2023/10/22 12:33:22;;;;;;;;;;;;;;;;;;5005856;28;4992;-59
2023/10/22 12:35:47;;;;;;;;;;;;;;;;;;5033433;28;5282;-59
2023/10/22 12:41:24;;;;;;;;;;;;;;;;;;5013973;28;4563;-59
2023/10/22 12:44:00;;;;;;;;;;;;;;;;;;5016440;28;4550;-58
2023/10/22 12:46:25;;;;;;;;;;;;;;;;;;5014980;28;4652;-59
2023/10/22 12:49:20;;;;;;;;;;;;;;;;;;5025142;28;5342;-59
2023/10/22 12:51:45;;;;;;;;;;;;;;;;;;5011687;28;5132;-58
2023/10/22 12:57:14;;;;;;;;;;;;;;;;;;5013923;28;5056;-58
2023/10/22 12:59:39;;;;;;;;;;;;;;;;;;5012708;28;1658;-59
2023/10/22 13:02:04;;;;;;;;;;;;;;;;;;5013750;28;5084;-58
2023/10/22 13:04:29;;;;;;;;;;;;;;;;;;5013295;28;4996;-59
2023/10/22 13:09:57;;;;;;;;;;;;;;;;;;5013870;28;5164;-59
2023/10/22 13:12:23;;;;;;;;;;;;;;;;;;5016178;28;5103;-59
2023/10/22 13:14:48;;;;;;;;;;;;;;;;;;5017137;28;4693;-58
2023/10/22 13:17:13;;;;;;;;;;;;;;;;;;5017951;28;1028;-59
2023/10/22 13:22:42;;;;;;;;;;;;;;;;;;5017288;28;5033;-59
2023/10/22 13:28:19;;;;;;;;;;;;;;;;;;5015914;28;4981;-58
2023/10/22 13:30:51;;;;;;;;;;;;;;;;;;5016052;28;5144;-58
2023/10/22 13:33:16;;;;;;;;;;;;;;;;;;5008747;28;5122;-59
2023/10/22 13:35:42;;;;;;;;;;;;;;;;;;5010120;28;1963;-58
2023/10/22 13:38:07;;;;;;;;;;;;;;;;;;5008171;28;5506;-58
2023/10/22 13:40:35;;;;;;;;;;;;;;;;;;5016378;28;5131;-59
2023/10/22 13:43:01;;;;;;;;;;;;;;;;;;5012617;28;5000;-59
2023/10/22 13:51:19;;;;;;;;;;;;;;;;;;5012783;28;5048;-57
2023/10/22 13:53:44;;;;;;;;;;;;;;;;;;5013108;28;2526;-56
2023/10/22 13:56:10;;;;;;;;;;;;;;;;;;5015826;28;4859;-56
2023/10/22 14:01:38;;;;;;;;;;;;;;;;;;5016845;28;5238;-58
2023/10/22 14:07:27;;;;;;;;;;;;;;;;;;5017020;28;5008;-56
2023/10/22 14:09:53;;;;;;;;;;;;;;;;;;5031785;28;4647;-55
2023/10/22 14:12:19;;;;;;;;;;;;;;;;;;5008933;28;5185;-56
2023/10/22 14:14:44;;;;;;;;;;;;;;;;;;5027328;28;1967;-57
2023/10/22 14:17:12;;;;;;;;;;;;;;;;;;5010377;28;4408;-56
2023/10/22 14:19:37;;;;;;;;;;;;;;;;;;4995811;28;4693;-56
2023/10/22 14:22:03;;;;;;;;;;;;;;;;;;5031022;28;5047;-56
2023/10/22 14:24:30;;;;;;;;;;;;;;;;;;5027398;28;5033;-56
2023/10/22 14:29:58;;;;;;;;;;;;;;;;;;5016189;28;5133;-55
2023/10/22 14:32:23;;;;;;;;;;;;;;;;;;5016662;28;950;-53
2023/10/22 14:34:49;;;;;;;;;;;;;;;;;;5016206;28;4555;-53
2023/10/22 14:37:14;;;;;;;;;;;;;;;;;;5031921;28;5024;-52
2023/10/22 14:42:42;;;;;;;;;;;;;;;;;;5016229;28;4613;-54
2023/10/22 14:45:24;;;;;;;;;;;;;;;;;;4998431;28;4636;-55
2023/10/22 14:47:49;;;;;;;;;;;;;;;;;;5014314;28;4982;-55
2023/10/22 14:50:30;;;;;;;;;;;;;;;;;;5024762;28;1421;-55
2023/10/22 14:59:00;;;;;;;;;;;;;;;;;;5015880;28;5031;-55
2023/10/22 15:01:27;;;;;;;;;;;;;;;;;;5015301;28;4883;-54
2023/10/22 15:03:53;;;;;;;;;;;;;;;;;;5011027;28;5095;-55
2023/10/22 15:06:18;;;;;;;;;;;;;;;;;;5028803;28;5109;-55
2023/10/22 15:08:59;;;;;;;;;;;;;;;;;;5014000;28;1344;-54
2023/10/22 15:11:39;;;;;;;;;;;;;;;;;;5015075;28;5243;-52
2023/10/22 15:14:27;;;;;;;;;;;;;;;;;;5010480;28;4458;-54
2023/10/22 15:16:52;;;;;;;;;;;;;;;;;;5013472;28;5079;-54
2023/10/22 15:19:18;;;;;;;;;;;;;;;;;;5013582;28;5109;-55
2023/10/22 15:21:43;;;;;;;;;;;;;;;;;;5048188;28;5660;-52
2023/10/22 15:27:11;;;;;;;;;;;;;;;;;;5013459;28;4530;-54
2023/10/22 15:29:59;;;;;;;;;;;;;;;;;;5012738;28;4718;-54
2023/10/22 15:32:25;;;;;;;;;;;;;;;;;;5026182;28;5264;-54
2023/10/22 15:34:56;;;;;;;;;;;;;;;;;;5054398;28;5065;-55
2023/10/22 15:37:22;;;;;;;;;;;;;;;;;;5039728;28;5124;-54
2023/10/22 15:39:47;;;;;;;;;;;;;;;;;;5013315;28;5076;-54
2023/10/22 15:42:12;;;;;;;;;;;;;;;;;;5030909;28;4667;-55
2023/10/22 15:44:38;;;;;;;;;;;;;;;;;;5030872;28;1369;-54
2023/10/22 15:47:04;;;;;;;;;;;;;;;;;;5012801;28;4945;-55
2023/10/22 15:55:56;;;;;;;;;;;;;;;;;;5011457;28;5154;-55
2023/10/22 16:04:27;;;;;;;;;;;;;;;;;;5010545;28;5312;-54
2023/10/22 16:06:52;;;;;;;;;;;;;;;;;;5020058;28;5295;-58
2023/10/22 16:09:17;;;;;;;;;;;;;;;;;;5013029;28;5038;-55
2023/10/22 16:11:45;;;;;;;;;;;;;;;;;;5010397;28;1401;-54
2023/10/22 16:17:14;;;;;;;;;;;;;;;;;;5015376;28;4583;-54
2023/10/22 16:19:39;;;;;;;;;;;;;;;;;;5012982;28;4931;-53
2023/10/22 16:22:05;;;;;;;;;;;;;;;;;;5032413;28;5059;-53
2023/10/22 16:24:31;;;;;;;;;;;;;;;;;;5012815;28;5077;-51
2023/10/22 16:26:56;;;;;;;;;;;;;;;;;;5026446;28;5308;-52
2023/10/22 16:29:21;;;;;;;;;;;;;;;;;;5013189;28;1178;-51
2023/10/22 16:31:46;;;;;;;;;;;;;;;;;;4994921;28;5006;-53
2023/10/22 16:34:12;;;;;;;;;;;;;;;;;;5012890;28;5039;-52
2023/10/22 16:36:50;;;;;;;;;;;;;;;;;;5014781;28;5187;-52
2023/10/22 16:39:16;;;;;;;;;;;;;;;;;;5014024;28;5216;-53
2023/10/22 16:41:41;;;;;;;;;;;;;;;;;;5022805;28;1321;-54
2023/10/22 17:08:46;;;;;;;;;;;;;;;;;;5006582;28;4611;-53
2023/10/22 17:11:11;;;;;;;;;;;;;;;;;;5024057;28;5051;-54
2023/10/22 17:13:36;;;;;;;;;;;;;;;;;;5037316;28;5011;-53
2023/10/22 17:16:15;;;;;;;;;;;;;;;;;;5002023;28;5121;-53
2023/10/22 17:18:40;;;;;;;;;;;;;;;;;;5017516;28;5075;-53
2023/10/22 17:21:06;;;;;;;;;;;;;;;;;;5022714;28;4483;-53
2023/10/22 17:23:37;;;;;;;;;;;;;;;;;;5029500;28;2406;-52
2023/10/22 17:26:07;;;;;;;;;;;;;;;;;;5013422;28;4980;-54
2023/10/22 17:28:32;;;;;;;;;;;;;;;;;;5030557;28;4513;-55
2023/10/22 17:30:58;;;;;;;;;;;;;;;;;;5015642;28;4971;-55
2023/10/22 17:33:23;;;;;;;;;;;;;;;;;;5018658;28;5164;-56
2023/10/22 17:35:55;;;;;;;;;;;;;;;;;;5010369;28;5075;-54
2023/10/22 17:38:21;;;;;;;;;;;;;;;;;;5035359;28;3436;-55
2023/10/22 17:40:46;;;;;;;;;;;;;;;;;;5009789;28;5122;-54
2023/10/22 17:43:15;;;;;;;;;;;;;;;;;;5012176;28;4910;-55
2023/10/22 17:45:41;;;;;;;;;;;;;;;;;;5000968;28;5114;-55
2023/10/22 17:48:08;;;;;;;;;;;;;;;;;;5011340;28;4571;-57
2023/10/22 17:50:35;;;;;;;;;;;;;;;;;;5009670;28;1188;-55
2023/10/22 17:53:00;;;;;;;;;;;;;;;;;;5011460;28;4595;-55
2023/10/22 17:55:26;;;;;;;;;;;;;;;;;;5009186;28;5059;-60
2023/10/22 17:58:11;;;;;;;;;;;;;;;;;;5009961;28;4978;-60
2023/10/22 18:03:43;;;;;;;;;;;;;;;;;;5031762;28;5048;-60
2023/10/22 18:09:17;;;;;;;;;;;;;;;;;;5032282;28;5031;-63
2023/10/22 18:11:42;;;;;;;;;;;;;;;;;;5022041;28;2581;-62
2023/10/22 18:14:08;;;;;;;;;;;;;;;;;;5017023;28;4967;-62
2023/10/22 18:19:36;;;;;;;;;;;;;;;;;;5016739;28;5060;-57
2023/10/22 18:22:02;;;;;;;;;;;;;;;;;;5016467;28;4995;-58
2023/10/22 18:24:27;;;;;;;;;;;;;;;;;;4999514;28;5097;-58
2023/10/22 18:26:52;;;;;;;;;;;;;;;;;;5016469;28;4999;-58
2023/10/22 18:32:21;;;;;;;;;;;;;;;;;;5017610;28;4556;-59
2023/10/22 18:34:46;;;;;;;;;;;;;;;;;;5016460;28;5404;-58
2023/10/22 18:37:11;;;;;;;;;;;;;;;;;;5016466;28;4571;-59
2023/10/22 18:39:37;;;;;;;;;;;;;;;;;;5016757;28;5064;-58
2023/10/22 18:42:03;;;;;;;;;;;;;;;;;;5016188;28;4583;-66
2023/10/22 18:47:31;;;;;;;;;;;;;;;;;;5017247;28;4727;-60
2023/10/22 18:52:59;;;;;;;;;;;;;;;;;;5016500;28;4838;-61
2023/10/22 18:55:24;;;;;;;;;;;;;;;;;;5030764;28;4857;-59
2023/10/22 18:57:50;;;;;;;;;;;;;;;;;;5016412;28;5235;-61
2023/10/22 19:00:17;;;;;;;;;;;;;;;;;;5016076;28;4909;-56
2023/10/22 19:05:51;;;;;;;;;;;;;;;;;;5016322;28;5176;-66
2023/10/22 19:08:47;;;;;;;;;;;;;;;;;;5016730;28;949;-70
2023/10/22 19:11:20;;;;;;;;;;;;;;;;;;4997139;28;5035;-64
2023/10/22 19:13:48;;;;;;;;;;;;;;;;;;5015464;28;4581;-65
2023/10/22 19:16:13;;;;;;;;;;;;;;;;;;5030710;28;4974;-65
2023/10/22 19:21:41;;;;;;;;;;;;;;;;;;5015997;28;4833;-71
2023/10/22 19:24:14;;;;;;;;;;;;;;;;;;5015069;28;5088;-68
2023/10/22 19:26:40;;;;;;;;;;;;;;;;;;5016575;28;1024;-73
2023/10/22 19:29:05;;;;;;;;;;;;;;;;;;5018075;28;4405;-82
2023/10/22 19:34:34;;;;;;;;;;;;;;;;;;5030624;28;4573;-68
2023/10/22 19:37:00;;;;;;;;;;;;;;;;;;5015325;28;5018;-69
2023/10/22 19:42:27;;;;;;;;;;;;;;;;;;5016074;28;4931;-67
2023/10/22 19:44:53;;;;;;;;;;;;;;;;;;5015341;28;4942;-67
2023/10/22 19:47:18;;;;;;;;;;;;;;;;;;5015677;28;1090;-67
2023/10/22 19:49:43;;;;;;;;;;;;;;;;;;5015043;28;5176;-65
2023/10/22 19:55:11;;;;;;;;;;;;;;;;;;5015235;28;5141;-65
2023/10/22 19:57:37;;;;;;;;;;;;;;;;;;5015211;28;4513;-64
2023/10/22 20:03:20;;;;;;;;;;;;;;;;;;5034567;28;5055;-58
2023/10/22 20:05:45;;;;;;;;;;;;;;;;;;5034846;28;1093;-58
2023/10/22 20:08:11;;;;;;;;;;;;;;;;;;5034534;28;5016;-58
2023/10/22 20:10:43;;;;;;;;;;;;;;;;;;5023596;28;5039;-58
2023/10/22 20:16:31;;;;;;;;;;;;;;;;;;5054288;28;5119;-57
2023/10/22 20:19:17;;;;;;;;;;;;;;;;;;5046316;28;4771;-57
2023/10/22 20:21:42;;;;;;;;;;;;;;;;;;5013527;28;4568;-60
2023/10/22 20:27:10;;;;;;;;;;;;;;;;;;5014792;28;5174;-53
2023/10/22 20:29:36;;;;;;;;;;;;;;;;;;5014610;28;1346;-54
2023/10/22 20:32:01;;;;;;;;;;;;;;;;;;5014788;28;5069;-57
2023/10/22 20:34:27;;;;;;;;;;;;;;;;;;5014201;28;5506;-57
2023/10/22 20:46:07;;;;;;;;;;;;;;;;;;5032550;28;4652;-53
2023/10/22 20:48:35;;;;;;;;;;;;;;;;;;5031227;28;4887;-54
2023/10/22 20:51:11;;;;;;;;;;;;;;;;;;5031034;28;5613;-53
2023/10/22 20:53:37;;;;;;;;;;;;;;;;;;5031945;28;1247;-54
2023/10/22 20:56:02;;;;;;;;;;;;;;;;;;5030838;28;4963;-52
2023/10/22 21:04:35;;;;;;;;;;;;;;;;;;5034708;28;4620;-54
2023/10/22 21:07:00;;;;;;;;;;;;;;;;;;5025423;28;5060;-53
2023/10/22 21:09:25;;;;;;;;;;;;;;;;;;5011021;28;5283;-64
2023/10/22 21:11:51;;;;;;;;;;;;;;;;;;5013854;28;4930;-59
2023/10/22 21:14:16;;;;;;;;;;;;;;;;;;5011927;28;2770;-59
2023/10/22 21:16:41;;;;;;;;;;;;;;;;;;5029282;28;4967;-59
2023/10/22 21:19:07;;;;;;;;;;;;;;;;;;5012677;28;5571;-59
2023/10/22 21:21:33;;;;;;;;;;;;;;;;;;5012639;28;5259;-59
2023/10/22 21:23:58;;;;;;;;;;;;;;;;;;5018438;28;5111;-59
2023/10/22 21:26:23;;;;;;;;;;;;;;;;;;5026494;28;1109;-60
2023/10/22 21:28:49;;;;;;;;;;;;;;;;;;5013878;28;4854;-59
2023/10/22 21:31:14;;;;;;;;;;;;;;;;;;5012108;28;4469;-59
2023/10/22 21:36:42;;;;;;;;;;;;;;;;;;5017663;28;4511;-59
2023/10/22 21:39:18;;;;;;;;;;;;;;;;;;5010371;28;4984;-59
2023/10/22 21:41:43;;;;;;;;;;;;;;;;;;5029247;28;1189;-59
2023/10/22 21:44:09;;;;;;;;;;;;;;;;;;5028303;28;4448;-59
2023/10/22 21:46:34;;;;;;;;;;;;;;;;;;5012985;28;4669;-61
2023/10/22 21:48:59;;;;;;;;;;;;;;;;;;5042108;28;4570;-59
2023/10/22 21:51:24;;;;;;;;;;;;;;;;;;5013419;28;4631;-59
2023/10/22 21:53:50;;;;;;;;;;;;;;;;;;5011901;28;5197;-59
2023/10/22 21:56:15;;;;;;;;;;;;;;;;;;5016627;28;1975;-59
2023/10/22 21:58:40;;;;;;;;;;;;;;;;;;5012109;28;4480;-60
2023/10/22 22:01:05;;;;;;;;;;;;;;;;;;5010623;28;5000;-59
2023/10/22 22:03:31;;;;;;;;;;;;;;;;;;5007572;28;4692;-60
2023/10/22 22:05:56;;;;;;;;;;;;;;;;;;5010818;28;4451;-59
2023/10/22 22:08:21;;;;;;;;;;;;;;;;;;5018260;28;1213;-59
2023/10/22 22:10:47;;;;;;;;;;;;;;;;;;5023248;28;4930;-59
2023/10/22 22:13:14;;;;;;;;;;;;;;;;;;5013147;28;5065;-60
2023/10/22 22:21:44;;;;;;;;;;;;;;;;;;5017101;28;4971;-59
2023/10/22 22:24:10;;;;;;;;;;;;;;;;;;5012910;28;5099;-60
2023/10/22 22:26:35;;;;;;;;;;;;;;;;;;5029191;28;1249;-59
2023/10/22 22:29:00;;;;;;;;;;;;;;;;;;5016295;28;4948;-59
2023/10/22 22:34:29;;;;;;;;;;;;;;;;;;5010948;28;5054;-64
2023/10/22 22:37:24;;;;;;;;;;;;;;;;;;5013638;28;4869;-59
2023/10/22 22:42:53;;;;;;;;;;;;;;;;;;5014928;28;5171;-59
2023/10/22 22:45:30;;;;;;;;;;;;;;;;;;5013241;28;4707;-59
2023/10/22 22:51:01;;;;;;;;;;;;;;;;;;5013012;28;5059;-59
2023/10/22 22:53:27;;;;;;;;;;;;;;;;;;5014255;28;1322;-59
2023/10/22 22:55:53;;;;;;;;;;;;;;;;;;4992948;28;5139;-59
2023/10/22 22:58:19;;;;;;;;;;;;;;;;;;5010432;28;4610;-59
2023/10/22 23:00:44;;;;;;;;;;;;;;;;;;5013412;28;5264;-59
2023/10/22 23:03:09;;;;;;;;;;;;;;;;;;5015762;28;4828;-59
2023/10/22 23:05:35;;;;;;;;;;;;;;;;;;5029111;28;1204;-59
2023/10/22 23:08:00;;;;;;;;;;;;;;;;;;5021231;28;5029;-59
2023/10/22 23:10:25;;;;;;;;;;;;;;;;;;5013745;28;4444;-59
2023/10/22 23:12:50;;;;;;;;;;;;;;;;;;5011267;28;4645;-59
2023/10/22 23:15:16;;;;;;;;;;;;;;;;;;5011818;28;5099;-59
2023/10/22 23:17:41;;;;;;;;;;;;;;;;;;5009992;28;1169;-60
2023/10/22 23:20:07;;;;;;;;;;;;;;;;;;5013389;28;4965;-59
2023/10/22 23:22:32;;;;;;;;;;;;;;;;;;5019534;28;4602;-59
2023/10/22 23:24:57;;;;;;;;;;;;;;;;;;5023073;28;5222;-59
2023/10/22 23:30:35;;;;;;;;;;;;;;;;;;5013680;28;5077;-59
2023/10/22 23:33:35;;;;;;;;;;;;;;;;;;5012343;28;5373;-59
2023/10/22 23:36:14;;;;;;;;;;;;;;;;;;5011007;28;5043;-60
2023/10/22 23:38:40;;;;;;;;;;;;;;;;;;5008150;28;1518;-60
2023/10/22 23:41:05;;;;;;;;;;;;;;;;;;5016393;28;4577;-59